createdAt,value
2023-02-25T00:02:04.230Z,44.99
2023-02-25T00:04:50.226Z,44.63
2023-02-25T00:07:36.113Z,44.80
2023-02-25T00:10:22.002Z,44.35
2023-02-25T00:13:17.851Z,45.04
2023-02-25T00:16:06.071Z,44.66
2023-02-25T00:18:56.330Z,45.32
2023-02-25T00:21:42.326Z,44.94
2023-02-25T00:24:28.315Z,45.17
2023-02-25T00:27:14.461Z,44.90
2023-02-25T00:30:02.892Z,44.86
2023-02-25T00:32:50.396Z,45.25
2023-02-25T00:35:40.170Z,45.16
2023-02-25T00:38:28.037Z,45.26
2023-02-25T00:41:16.148Z,45.25
2023-02-25T00:44:02.468Z,44.98
2023-02-25T00:46:48.674Z,45.25
2023-02-25T00:49:34.387Z,45.58
2023-02-25T00:52:20.587Z,45.24
2023-02-25T00:55:07.129Z,45.71
2023-02-25T00:57:53.191Z,45.28
2023-02-25T01:00:51.279Z,45.40
2023-02-25T01:03:37.915Z,45.43
2023-02-25T01:06:25.447Z,45.28
2023-02-25T01:09:14.048Z,45.47
2023-02-25T01:11:59.894Z,45.42
2023-02-25T01:14:46.398Z,45.74
2023-02-25T01:17:32.330Z,45.46
2023-02-25T01:20:19.995Z,45.27
2023-02-25T01:23:08.018Z,45.51
2023-02-25T01:25:54.135Z,45.54
2023-02-25T01:28:40.419Z,45.75
2023-02-25T01:31:29.882Z,45.45
2023-02-25T01:34:17.782Z,45.60
2023-02-25T01:37:04.471Z,45.38
2023-02-25T01:39:50.372Z,45.57
2023-02-25T01:42:37.115Z,45.55
2023-02-25T01:45:29.452Z,45.45
2023-02-25T01:48:21.367Z,45.57
2023-02-25T01:51:10.491Z,45.56
2023-02-25T01:53:58.264Z,45.61
2023-02-25T01:56:49.466Z,45.61
2023-02-25T01:59:36.564Z,45.65
2023-02-25T02:02:24.610Z,45.83
2023-02-25T02:05:11.408Z,45.72
2023-02-25T02:07:57.607Z,45.62
2023-02-25T02:10:45.830Z,45.97
2023-02-25T02:13:34.606Z,45.76
2023-02-25T02:16:49.078Z,46.12
2023-02-25T02:19:47.972Z,46.40
2023-02-25T02:22:51.822Z,46.60
2023-02-25T02:26:01.109Z,46.41
2023-02-25T02:29:22.872Z,46.43
2023-02-25T02:32:37.703Z,46.56
2023-02-25T02:35:47.945Z,46.27
2023-02-25T02:38:49.178Z,46.58
2023-02-25T02:41:37.725Z,46.58
2023-02-25T02:44:23.657Z,46.33
2023-02-25T02:47:14.605Z,46.65
2023-02-25T02:50:10.550Z,46.88
2023-02-25T02:52:58.840Z,46.46
2023-02-25T02:55:47.659Z,46.59
2023-02-25T02:58:40.995Z,46.58
2023-02-25T03:01:30.614Z,46.56
2023-02-25T03:04:21.366Z,46.32
2023-02-25T03:07:10.689Z,46.87
2023-02-25T03:09:59.327Z,47.22
2023-02-25T03:12:50.830Z,46.69
2023-02-25T03:15:39.165Z,46.82
2023-02-25T03:18:40.980Z,46.95
2023-02-25T03:21:32.863Z,46.92
2023-02-25T03:24:32.452Z,47.06
2023-02-25T03:27:37.534Z,46.94
2023-02-25T03:30:45.454Z,46.86
2023-02-25T03:33:41.380Z,47.18
2023-02-25T03:36:36.293Z,46.82
2023-02-25T03:39:29.598Z,47.15
2023-02-25T03:42:20.923Z,47.38
2023-02-25T03:45:08.394Z,46.84
2023-02-25T03:47:55.908Z,47.00
2023-02-25T03:50:45.092Z,47.45
2023-02-25T03:53:35.276Z,47.13
2023-02-25T03:56:42.919Z,47.24
2023-02-25T03:59:29.084Z,47.05
2023-02-25T04:02:16.150Z,47.43
2023-02-25T04:05:02.017Z,47.06
2023-02-25T04:07:48.271Z,47.42
2023-02-25T04:10:34.594Z,47.15
2023-02-25T04:13:20.947Z,47.41
2023-02-25T04:16:08.725Z,46.89
2023-02-25T04:18:55.322Z,47.28
2023-02-25T04:21:41.358Z,47.22
2023-02-25T04:24:27.373Z,47.70
2023-02-25T04:27:15.671Z,47.45
2023-02-25T04:30:01.734Z,47.47
2023-02-25T04:32:47.570Z,47.69
2023-02-25T04:35:33.290Z,47.62
2023-02-25T04:38:19.276Z,47.58
2023-02-25T04:41:05.096Z,47.65
2023-02-25T04:43:51.123Z,47.81
2023-02-25T04:46:40.138Z,47.63
2023-02-25T04:49:26.054Z,47.39
2023-02-25T04:52:13.528Z,47.54
2023-02-25T04:54:59.776Z,47.75
2023-02-25T04:57:45.828Z,47.26
2023-02-25T05:00:31.788Z,47.43
2023-02-25T05:03:17.617Z,47.75
2023-02-25T05:06:04.197Z,47.72
2023-02-25T05:08:50.990Z,47.72
2023-02-25T05:11:37.163Z,47.83
2023-02-25T05:14:23.093Z,47.75
2023-02-25T05:17:08.947Z,48.01
2023-02-25T05:19:56.162Z,47.79
2023-02-25T05:22:42.499Z,47.91
2023-02-25T05:25:28.225Z,48.01
2023-02-25T05:28:13.936Z,48.39
2023-02-25T05:30:59.872Z,47.89
2023-02-25T05:33:45.825Z,48.52
2023-02-25T05:36:31.972Z,48.12
2023-02-25T05:39:18.069Z,48.15
2023-02-25T05:42:04.010Z,48.05
2023-02-25T05:44:50.237Z,48.41
2023-02-25T05:47:36.362Z,48.32
2023-02-25T05:50:22.140Z,48.14
2023-02-25T05:53:09.524Z,48.31
2023-02-25T05:55:55.882Z,48.56
2023-02-25T05:58:41.666Z,49.10
2023-02-25T06:01:29.463Z,49.10
2023-02-25T06:04:15.920Z,49.15
2023-02-25T06:07:03.486Z,48.80
2023-02-25T06:09:49.934Z,48.74
2023-02-25T06:12:38.233Z,48.77
2023-02-25T06:15:24.383Z,48.20
2023-02-25T06:18:10.559Z,48.75
2023-02-25T06:20:56.513Z,48.75
2023-02-25T06:23:43.801Z,48.77
2023-02-25T06:26:31.410Z,48.45
2023-02-25T06:29:17.742Z,48.66
2023-02-25T06:32:03.905Z,49.04
2023-02-25T06:34:50.097Z,49.41
2023-02-25T06:37:36.133Z,48.89
2023-02-25T06:40:23.037Z,49.06
2023-02-25T06:43:09.359Z,49.15
2023-02-25T06:45:55.514Z,49.43
2023-02-25T06:48:41.326Z,48.96
2023-02-25T06:51:27.480Z,48.91
2023-02-25T06:54:13.642Z,49.24
2023-02-25T06:57:00.804Z,49.18
2023-02-25T06:59:47.522Z,48.86
2023-02-25T07:02:34.069Z,48.84
2023-02-25T07:05:19.907Z,49.05
2023-02-25T07:08:05.902Z,48.97
2023-02-25T07:10:52.437Z,48.63
2023-02-25T07:13:38.514Z,49.13
2023-02-25T07:16:24.714Z,48.86
2023-02-25T07:19:10.636Z,48.75
2023-02-25T07:21:56.567Z,48.85
2023-02-25T07:24:43.124Z,48.85
2023-02-25T07:27:29.059Z,48.90
2023-02-25T07:30:15.162Z,48.90
2023-02-25T07:33:01.004Z,48.67
2023-02-25T07:35:47.445Z,48.64
2023-02-25T07:38:33.357Z,48.83
2023-02-25T07:41:19.639Z,48.70
2023-02-25T07:44:06.347Z,48.44
2023-02-25T07:46:52.636Z,48.48
2023-02-25T07:49:38.419Z,48.34
2023-02-25T07:52:24.348Z,48.43
2023-02-25T07:55:10.793Z,48.43
2023-02-25T07:57:57.729Z,48.50
2023-02-25T08:00:45.762Z,48.42
2023-02-25T08:03:31.697Z,48.31
2023-02-25T08:06:17.827Z,48.25
2023-02-25T08:09:05.910Z,48.10
2023-02-25T08:11:52.528Z,48.32
2023-02-25T08:14:38.347Z,48.15
2023-02-25T08:17:24.251Z,48.41
2023-02-25T08:20:11.320Z,47.53
2023-02-25T08:22:57.415Z,47.66
2023-02-25T08:25:43.327Z,47.84
2023-02-25T08:28:34.343Z,47.36
2023-02-25T08:31:22.906Z,47.64
2023-02-25T08:34:09.661Z,47.31
2023-02-25T08:36:55.614Z,47.14
2023-02-25T08:39:41.512Z,46.93
2023-02-25T08:42:27.555Z,47.09
2023-02-25T08:45:13.726Z,47.10
2023-02-25T08:48:00.512Z,46.87
2023-02-25T08:50:46.377Z,46.85
2023-02-25T08:53:32.277Z,47.01
2023-02-25T08:56:18.501Z,47.07
2023-02-25T08:59:05.290Z,46.75
2023-02-25T09:01:52.347Z,46.88
2023-02-25T09:04:38.182Z,46.80
2023-02-25T09:07:24.295Z,46.63
2023-02-25T09:10:13.126Z,46.21
2023-02-25T09:12:59.215Z,46.47
2023-02-25T09:15:46.932Z,46.55
2023-02-25T09:18:33.310Z,46.70
2023-02-25T09:21:19.916Z,46.09
2023-02-25T09:24:07.177Z,45.85
2023-02-25T09:26:52.967Z,46.17
2023-02-25T09:29:40.231Z,45.96
2023-02-25T09:32:26.188Z,45.70
2023-02-25T09:35:12.654Z,45.76
2023-02-25T09:37:58.935Z,46.04
2023-02-25T09:40:49.254Z,45.35
2023-02-25T09:43:39.312Z,45.63
2023-02-25T09:46:27.417Z,45.68
2023-02-25T09:49:15.833Z,45.84
2023-02-25T09:52:18.630Z,45.47
2023-02-25T09:55:24.321Z,46.13
2023-02-25T09:58:36.837Z,44.60
2023-02-25T10:01:35.108Z,45.71
2023-02-25T10:04:27.709Z,45.33
2023-02-25T10:07:22.762Z,45.26
2023-02-25T10:10:27.999Z,45.39
2023-02-25T10:13:37.152Z,45.67
2023-02-25T10:16:40.071Z,45.78
2023-02-25T10:19:44.919Z,45.46
2023-02-25T10:22:49.831Z,45.19
2023-02-25T10:25:44.406Z,45.06
2023-02-25T10:28:32.256Z,45.42
2023-02-25T10:31:20.448Z,45.38
2023-02-25T10:34:27.932Z,45.17
2023-02-25T10:37:28.376Z,45.29
2023-02-25T10:40:17.874Z,45.08
2023-02-25T10:43:19.162Z,44.90
2023-02-25T10:46:10.788Z,45.14
2023-02-25T10:48:59.767Z,45.07
2023-02-25T10:52:03.938Z,44.76
2023-02-25T10:54:52.212Z,45.17
2023-02-25T10:57:42.986Z,45.00
2023-02-25T11:00:31.711Z,45.24
2023-02-25T11:03:22.282Z,45.10
2023-02-25T11:06:20.647Z,45.20
2023-02-25T11:09:30.278Z,44.91
2023-02-25T11:12:20.111Z,44.88
2023-02-25T11:15:50.067Z,44.40
2023-02-25T11:18:36.407Z,44.35
2023-02-25T11:21:31.849Z,43.90
2023-02-25T11:24:31.395Z,44.28
2023-02-25T11:27:36.016Z,44.35
2023-02-25T11:30:30.244Z,44.46
2023-02-25T11:33:21.591Z,44.47
2023-02-25T11:36:08.069Z,44.60
2023-02-25T11:39:07.280Z,42.88
2023-02-25T11:41:58.692Z,43.59
2023-02-25T11:44:45.790Z,44.77
2023-02-25T11:47:34.490Z,44.06
2023-02-25T11:50:51.193Z,43.94
2023-02-25T11:53:52.261Z,44.24
2023-02-25T11:56:41.092Z,43.86
2023-02-25T11:59:52.745Z,43.61
2023-02-25T12:02:46.697Z,44.00
2023-02-25T12:05:50.902Z,43.77
2023-02-25T12:08:57.105Z,43.92
2023-02-25T12:12:07.327Z,43.91
2023-02-25T12:15:10.902Z,42.43
2023-02-25T12:18:27.467Z,43.58
2023-02-25T12:21:50.939Z,43.95
2023-02-25T12:24:52.042Z,43.83
2023-02-25T12:27:52.466Z,43.73
2023-02-25T12:31:02.144Z,43.66
2023-02-25T12:34:10.452Z,44.02
2023-02-25T12:37:14.750Z,44.50
2023-02-25T12:40:04.377Z,44.05
2023-02-25T12:43:21.905Z,43.87
2023-02-25T12:46:21.389Z,44.30
2023-02-25T12:49:25.802Z,43.99
2023-02-25T12:52:23.574Z,43.84
2023-02-25T12:55:38.278Z,43.55
2023-02-25T12:58:27.174Z,43.65
2023-02-25T13:01:36.672Z,43.77
2023-02-25T13:04:31.594Z,43.82
2023-02-25T13:07:44.668Z,43.61
2023-02-25T13:10:42.112Z,43.71
2023-02-25T13:13:49.096Z,42.52
2023-02-25T13:17:09.494Z,43.63
2023-02-25T13:20:43.322Z,43.58
2023-02-25T13:23:34.450Z,43.98
2023-02-25T13:26:37.846Z,43.39
2023-02-25T13:29:41.796Z,43.26
2023-02-25T13:32:37.829Z,43.48
2023-02-25T13:35:26.962Z,43.57
2023-02-25T13:38:28.313Z,43.64
2023-02-25T13:41:30.421Z,43.44
2023-02-25T13:44:25.598Z,43.63
2023-02-25T13:47:17.720Z,43.18
2023-02-25T13:50:03.554Z,43.26
2023-02-25T13:53:23.987Z,42.95
2023-02-25T13:56:43.954Z,43.01
2023-02-25T14:00:25.431Z,42.98
2023-02-25T14:03:53.780Z,42.38
2023-02-25T14:07:01.441Z,42.59
2023-02-25T14:09:47.454Z,42.67
2023-02-25T14:12:41.280Z,42.78
2023-02-25T14:16:12.350Z,42.31
2023-02-25T14:19:08.201Z,41.95
2023-02-25T14:22:21.208Z,42.21
2023-02-25T14:25:35.443Z,42.04
2023-02-25T14:28:49.641Z,42.10
2023-02-25T14:32:13.857Z,42.12
2023-02-25T14:35:06.001Z,42.11
2023-02-25T14:38:09.848Z,41.51
2023-02-25T14:41:37.381Z,42.58
2023-02-25T14:44:32.391Z,41.15
2023-02-25T14:47:55.691Z,42.44
2023-02-25T14:51:18.981Z,41.50
2023-02-25T14:54:04.994Z,42.30
2023-02-25T14:57:12.711Z,42.48
2023-02-25T15:00:26.421Z,41.92
2023-02-25T15:03:43.336Z,42.38
2023-02-25T15:06:36.689Z,41.75
2023-02-25T15:09:34.629Z,42.33
2023-02-25T15:13:02.986Z,42.25
2023-02-25T15:16:01.387Z,42.08
2023-02-25T15:18:47.259Z,41.99
2023-02-25T15:21:48.366Z,42.24
2023-02-25T15:24:40.822Z,41.86
2023-02-25T15:27:41.633Z,42.17
2023-02-25T15:30:29.068Z,42.08
2023-02-25T15:33:24.693Z,42.13
2023-02-25T15:36:13.826Z,41.73
2023-02-25T15:38:59.933Z,42.40
2023-02-25T15:41:59.343Z,42.15
2023-02-25T15:44:46.153Z,41.88
2023-02-25T15:47:32.314Z,41.87
2023-02-25T15:50:54.553Z,42.41
2023-02-25T15:53:42.326Z,41.94
2023-02-25T15:56:46.382Z,41.92
2023-02-25T15:59:44.608Z,42.08
2023-02-25T16:02:35.156Z,42.13
2023-02-25T16:05:28.717Z,41.96
2023-02-25T16:08:22.997Z,41.93
2023-02-25T16:11:19.108Z,41.91
2023-02-25T16:14:21.313Z,41.94
2023-02-25T16:17:24.020Z,42.26
2023-02-25T16:20:47.422Z,42.08
2023-02-25T16:23:33.654Z,42.63
2023-02-25T16:26:41.422Z,42.23
2023-02-25T16:29:54.801Z,42.25
2023-02-25T16:32:54.795Z,42.09
2023-02-25T16:35:55.378Z,42.03
2023-02-25T16:39:11.425Z,42.36
2023-02-25T16:42:21.390Z,42.17
2023-02-25T16:45:08.331Z,42.15
2023-02-25T16:47:57.194Z,41.83
2023-02-25T16:50:46.329Z,42.26
2023-02-25T16:53:32.169Z,42.19
2023-02-25T16:56:21.243Z,42.00
2023-02-25T16:59:10.069Z,41.92
2023-02-25T17:01:58.850Z,42.25
2023-02-25T17:04:47.789Z,42.07
2023-02-25T17:07:35.877Z,42.29
2023-02-25T17:10:28.854Z,42.13
2023-02-25T17:13:16.383Z,42.45
2023-02-25T17:16:04.567Z,42.24
2023-02-25T17:18:57.702Z,41.85
2023-02-25T17:21:46.674Z,42.08
2023-02-25T17:24:33.178Z,42.29
2023-02-25T17:27:20.215Z,41.79
2023-02-25T17:30:36.036Z,41.73
2023-02-25T17:33:29.205Z,41.72
2023-02-25T17:36:17.755Z,41.91
2023-02-25T17:39:08.925Z,41.88
2023-02-25T17:41:54.965Z,42.04
2023-02-25T17:44:44.490Z,41.57
2023-02-25T17:47:33.153Z,41.76
2023-02-25T17:50:37.734Z,41.77
2023-02-25T17:53:36.574Z,41.82
2023-02-25T17:56:26.457Z,41.97
2023-02-25T17:59:12.426Z,41.61
2023-02-25T18:02:00.356Z,41.72
2023-02-25T18:04:46.411Z,41.72
2023-02-25T18:07:33.313Z,41.90
2023-02-25T18:10:31.453Z,41.81
2023-02-25T18:13:22.483Z,41.50
2023-02-25T18:16:20.811Z,41.63
2023-02-25T18:19:32.208Z,41.67
2023-02-25T18:22:29.518Z,41.70
2023-02-25T18:25:34.666Z,41.92
2023-02-25T18:28:22.271Z,41.66
2023-02-25T18:31:08.397Z,41.69
2023-02-25T18:33:55.133Z,41.69
2023-02-25T18:36:43.811Z,41.88
2023-02-25T18:39:30.090Z,42.12
2023-02-25T18:42:17.797Z,41.57
2023-02-25T18:45:14.367Z,41.70
2023-02-25T18:48:00.904Z,41.68
2023-02-25T18:50:46.694Z,41.96
2023-02-25T18:53:33.571Z,42.11
2023-02-25T18:56:19.606Z,41.56
2023-02-25T18:59:05.871Z,41.77
2023-02-25T19:01:51.980Z,41.71
2023-02-25T19:04:37.712Z,42.06
2023-02-25T19:07:29.250Z,41.88
2023-02-25T19:10:26.797Z,41.39
2023-02-25T19:13:30.782Z,41.62
2023-02-25T19:16:17.269Z,41.18
2023-02-25T19:19:04.024Z,41.55
2023-02-25T19:21:50.384Z,41.25
2023-02-25T19:24:36.222Z,41.19
2023-02-25T19:27:24.962Z,41.25
2023-02-25T19:30:14.014Z,41.57
2023-02-25T19:33:03.491Z,41.56
2023-02-25T19:35:50.893Z,41.56
2023-02-25T19:38:36.734Z,41.65
2023-02-25T19:41:22.813Z,41.05
2023-02-25T19:44:09.452Z,41.43
2023-02-25T19:46:55.739Z,41.40
2023-02-25T19:49:41.511Z,41.18
2023-02-25T19:52:27.796Z,40.99
2023-02-25T19:55:14.615Z,40.91
2023-02-25T19:58:00.847Z,41.28
2023-02-25T20:00:46.973Z,40.85
2023-02-25T20:03:33.205Z,40.93
2023-02-25T20:06:20.329Z,41.00
2023-02-25T20:09:08.481Z,41.12
2023-02-25T20:11:54.513Z,41.00
2023-02-25T20:14:40.730Z,40.99
2023-02-25T20:17:26.674Z,40.96
2023-02-25T20:20:14.265Z,41.01
2023-02-25T20:23:00.166Z,40.95
2023-02-25T20:25:46.154Z,40.78
2023-02-25T20:28:31.937Z,40.68
2023-02-25T20:31:18.578Z,40.72
2023-02-25T20:34:05.813Z,40.94
2023-02-25T20:36:55.015Z,40.71
2023-02-25T20:40:08.393Z,41.24
2023-02-25T20:42:54.947Z,41.12
2023-02-25T20:45:41.197Z,41.01
2023-02-25T20:48:29.922Z,40.59
2023-02-25T20:51:15.942Z,40.99
2023-02-25T20:54:03.846Z,40.73
2023-02-25T20:56:50.053Z,40.78
2023-02-25T20:59:36.271Z,40.68
2023-02-25T21:02:22.387Z,40.71
2023-02-25T21:05:08.631Z,40.80
2023-02-25T21:07:54.801Z,40.44
2023-02-25T21:10:40.787Z,40.59
2023-02-25T21:13:26.793Z,40.79
2023-02-25T21:16:13.301Z,40.51
2023-02-25T21:18:59.185Z,40.65
2023-02-25T21:21:45.059Z,40.58
2023-02-25T21:24:33.583Z,40.32
2023-02-25T21:27:19.849Z,40.52
2023-02-25T21:30:06.594Z,40.56
2023-02-25T21:32:52.573Z,40.46
2023-02-25T21:35:38.416Z,40.70
2023-02-25T21:38:24.261Z,40.59
2023-02-25T21:41:13.357Z,40.71
2023-02-25T21:43:59.497Z,40.49
2023-02-25T21:46:45.254Z,40.57
2023-02-25T21:49:31.872Z,40.42
2023-02-25T21:52:18.580Z,40.49
2023-02-25T21:55:04.910Z,40.52
2023-02-25T21:57:50.803Z,40.70
2023-02-25T22:00:36.775Z,40.46
2023-02-25T22:03:22.816Z,40.07
2023-02-25T22:06:09.449Z,40.49
2023-02-25T22:08:56.584Z,40.17
2023-02-25T22:11:42.675Z,40.55
2023-02-25T22:14:28.735Z,40.56
2023-02-25T22:17:14.325Z,40.27
2023-02-25T22:20:00.393Z,40.64
2023-02-25T22:22:46.193Z,40.49
2023-02-25T22:25:32.470Z,40.45
2023-02-25T22:28:18.258Z,40.49
2023-02-25T22:31:05.171Z,40.23
2023-02-25T22:33:52.554Z,40.04
2023-02-25T22:36:38.463Z,39.91
2023-02-25T22:39:24.501Z,40.43
2023-02-25T22:42:10.951Z,40.27
2023-02-25T22:44:56.855Z,40.57
2023-02-25T22:47:43.191Z,40.19
2023-02-25T22:50:31.536Z,40.42
2023-02-25T22:53:23.498Z,40.32
2023-02-25T22:56:10.551Z,40.08
2023-02-25T22:58:56.570Z,40.27
2023-02-25T23:01:42.504Z,40.21
2023-02-25T23:04:28.401Z,40.16
2023-02-25T23:07:14.096Z,40.23
2023-02-25T23:09:59.852Z,39.85
2023-02-25T23:12:45.754Z,40.19
2023-02-25T23:15:32.536Z,40.23
2023-02-25T23:18:19.110Z,39.96
2023-02-25T23:21:05.876Z,39.63
2023-02-25T23:23:53.976Z,39.97
2023-02-25T23:26:41.846Z,40.14
2023-02-25T23:29:27.641Z,40.20
2023-02-25T23:32:13.721Z,40.19
2023-02-25T23:34:59.656Z,39.90
2023-02-25T23:37:47.236Z,39.81
2023-02-25T23:40:33.191Z,39.85
2023-02-25T23:43:19.319Z,40.17
2023-02-25T23:46:09.253Z,40.25
2023-02-25T23:49:01.333Z,40.10
2023-02-25T23:51:47.946Z,39.99
2023-02-25T23:54:34.031Z,40.05
2023-02-25T23:57:20.045Z,39.91
